Time;durP1;ratioP1;P1;durP2;ratioP2;P2;SDS_P1;SDS_P2;PMS_P1;PMS_P2;Temp;Humidity;BMP_temperature;BMP_pressure;BME280_temperature;BME280_humidity;BME280_pressure;Samples;Min_cycle;Max_cycle;Signal;HPM_P1;HPM_P2
2020/12/28 00:01:08;;;;;;;10.93;5.10;;;;;;;12.82;43.09;96460.16;5082502;28;20027;-78
2020/12/28 00:03:34;;;;;;;23.20;10.90;;;;;;;12.92;43.00;96461.84;5082464;28;20024;-78
2020/12/28 00:05:59;;;;;;;37.50;20.10;;;;;;;13.29;42.18;96447.53;5080964;28;20028;-78
2020/12/28 00:08:25;;;;;;;6.47;2.75;;;;;;;13.46;41.93;96452.97;5082485;28;20047;-79
2020/12/28 00:10:51;;;;;;;38.23;18.97;;;;;;;13.41;42.15;96457.00;5082008;28;20099;-77
2020/12/28 00:13:16;;;;;;;32.07;17.03;;;;;;;13.72;41.47;96464.75;5084158;28;20028;-79
2020/12/28 00:15:42;;;;;;;6.43;2.22;;;;;;;13.82;41.57;96464.41;5084037;28;20131;-78
2020/12/28 00:18:07;;;;;;;6.07;2.33;;;;;;;13.39;42.70;96472.38;5082529;28;20473;-77
2020/12/28 00:20:33;;;;;;;78.70;37.07;;;;;;;13.99;41.33;96459.63;5084816;28;20485;-79
2020/12/28 00:22:59;;;;;;;50.50;23.92;;;;;;;14.04;41.46;96458.28;5082719;28;20458;-78
2020/12/28 00:25:28;;;;;;;139.65;64.07;;;;;;;13.93;41.85;96458.63;5084111;28;20474;-79
2020/12/28 00:27:55;;;;;;;6.20;2.40;;;;;;;13.73;42.54;96455.31;5083041;28;20024;-78
2020/12/28 00:30:21;;;;;;;6.40;2.60;;;;;;;13.47;42.99;96444.31;5083663;28;20023;-77
2020/12/28 00:32:47;;;;;;;40.28;14.52;;;;;;;13.59;43.03;96440.03;5084626;28;20091;-77
2020/12/28 00:35:13;;;;;;;110.75;50.65;;;;;;;13.25;43.85;96433.19;5081801;28;20104;-79
2020/12/28 00:37:39;;;;;;;11.77;5.67;;;;;;;14.04;42.37;96431.59;5084955;28;20077;-78
2020/12/28 00:40:06;;;;;;;11.95;4.70;;;;;;;14.23;41.88;96427.09;5084278;28;20025;-78
2020/12/28 00:42:32;;;;;;;9.65;2.58;;;;;;;14.31;41.93;96411.94;5081757;28;20486;-77
2020/12/28 00:44:58;;;;;;;11.53;5.87;;;;;;;14.18;42.49;96405.69;5081848;28;20031;-78
2020/12/28 00:47:24;;;;;;;9.40;3.97;;;;;;;14.24;42.39;96398.44;5084072;28;20028;-78
2020/12/28 00:49:50;;;;;;;11.35;5.35;;;;;;;14.37;42.16;96398.41;5082282;28;20062;-77
2020/12/28 00:52:16;;;;;;;9.82;3.75;;;;;;;14.20;42.64;96381.28;5083648;28;20052;-78
2020/12/28 00:54:41;;;;;;;6.20;2.45;;;;;;;14.24;42.66;96395.69;5082059;28;20032;-78
2020/12/28 00:57:07;;;;;;;22.37;18.60;;;;;;;13.62;44.26;96389.81;5081648;28;20020;-78
2020/12/28 00:59:33;;;;;;;8.93;1.98;;;;;;;13.82;43.53;96384.84;5082620;28;20056;-78
2020/12/28 01:01:58;;;;;;;7.82;2.25;;;;;;;13.54;44.43;96386.50;5081000;28;20027;-77
2020/12/28 01:04:25;;;;;;;12.45;3.42;;;;;;;13.38;44.59;96380.34;5082076;28;20417;-78
2020/12/28 01:06:51;;;;;;;10.23;2.50;;;;;;;13.66;44.27;96384.19;5080589;28;20024;-78
2020/12/28 01:09:17;;;;;;;8.20;2.00;;;;;;;13.73;44.14;96378.50;5081138;28;20481;-78
2020/12/28 01:11:43;;;;;;;4.70;1.92;;;;;;;13.76;44.04;96381.16;5084013;28;20020;-78
2020/12/28 01:14:10;;;;;;;8.80;2.10;;;;;;;13.80;43.88;96387.28;5083365;28;20032;-78
2020/12/28 01:16:36;;;;;;;8.80;2.97;;;;;;;14.08;42.78;96387.59;5093369;28;20394;-79
2020/12/28 01:19:03;;;;;;;13.05;2.83;;;;;;;13.62;44.34;96383.56;5093330;28;20078;-79
2020/12/28 01:21:29;;;;;;;17.50;3.60;;;;;;;13.77;43.93;96393.66;5094447;28;20099;-79
2020/12/28 01:23:55;;;;;;;10.70;2.83;;;;;;;13.99;43.16;96390.25;5093174;28;20020;-79
2020/12/28 01:26:21;;;;;;;13.13;2.63;;;;;;;14.30;42.65;96398.66;5093058;28;20023;-79
2020/12/28 01:28:47;;;;;;;11.02;2.03;;;;;;;13.97;43.56;96395.38;5094235;28;20090;-78
2020/12/28 01:31:12;;;;;;;10.43;2.35;;;;;;;13.91;43.63;96402.66;5093045;28;20047;-78
2020/12/28 01:33:39;;;;;;;12.88;2.22;;;;;;;14.24;42.76;96405.91;5093029;28;20024;-78
2020/12/28 01:36:05;;;;;;;11.75;2.47;;;;;;;14.25;42.67;96413.69;5092902;28;20016;-79
2020/12/28 01:38:30;;;;;;;11.25;2.00;;;;;;;14.42;42.42;96412.31;5092614;28;20471;-78
2020/12/28 01:40:57;;;;;;;14.75;2.53;;;;;;;14.78;41.41;96404.91;5093847;28;20038;-78
2020/12/28 01:43:31;;;;;;;11.43;2.17;;;;;;;14.18;42.80;96405.69;5092541;28;20024;-79
2020/12/28 01:46:00;;;;;;;10.93;3.35;;;;;;;14.25;42.80;96399.19;5093897;28;20047;-78
2020/12/28 01:48:33;;;;;;;15.25;3.17;;;;;;;14.59;42.21;96402.00;5093982;28;20039;-79
2020/12/28 01:50:59;;;;;;;12.48;2.83;;;;;;;14.65;41.64;96402.97;5092609;28;20127;-78
2020/12/28 01:53:25;;;;;;;11.13;2.20;;;;;;;14.50;42.14;96406.63;5093829;28;20115;-79
2020/12/28 01:56:11;;;;;;;12.40;2.60;;;;;;;14.74;41.99;96402.28;5092263;28;20023;-78
2020/12/28 01:58:37;;;;;;;10.57;2.88;;;;;;;14.41;42.47;96394.31;5093405;28;20577;-78
2020/12/28 02:01:02;;;;;;;13.85;3.20;;;;;;;14.49;42.81;96399.59;5092085;28;20110;-79
2020/12/28 02:03:28;;;;;;;11.75;3.30;;;;;;;14.06;43.77;96411.97;5091904;28;20109;-78
2020/12/28 02:05:54;;;;;;;12.68;2.80;;;;;;;14.76;42.24;96412.81;5093698;28;20032;-78
2020/12/28 02:08:20;;;;;;;12.43;3.45;;;;;;;14.83;41.81;96410.59;5093638;28;20039;-78
2020/12/28 02:10:47;;;;;;;14.70;3.40;;;;;;;14.39;42.83;96418.72;5093531;28;20028;-79
2020/12/28 02:13:13;;;;;;;15.00;2.97;;;;;;;14.46;42.83;96423.25;5093537;28;20489;-79
2020/12/28 02:15:39;;;;;;;13.10;3.28;;;;;;;14.76;42.09;96432.06;5093542;28;20032;-78
2020/12/28 02:18:04;;;;;;;12.32;2.60;;;;;;;14.64;42.35;96433.63;5092094;28;20118;-78
2020/12/28 02:20:30;;;;;;;9.60;2.97;;;;;;;15.04;41.43;96433.84;5093364;28;20032;-78
2020/12/28 02:22:56;;;;;;;7.18;2.05;;;;;;;14.90;41.57;96440.59;5092143;28;20385;-78
2020/12/28 02:25:21;;;;;;;12.85;2.72;;;;;;;15.33;40.72;96444.56;5093277;28;20534;-78
2020/12/28 02:27:47;;;;;;;11.20;2.25;;;;;;;15.22;40.68;96431.19;5093020;28;20047;-78
2020/12/28 02:30:13;;;;;;;10.65;2.00;;;;;;;14.96;41.61;96440.75;5093255;28;20023;-79
2020/12/28 02:32:38;;;;;;;10.60;2.17;;;;;;;15.08;41.52;96450.94;5091780;28;20028;-79
2020/12/28 02:35:05;;;;;;;9.88;2.38;;;;;;;15.34;40.70;96456.31;5092786;28;20028;-79
2020/12/28 02:37:31;;;;;;;10.52;2.67;;;;;;;15.29;40.87;96454.16;5093114;28;20054;-78
2020/12/28 02:39:56;;;;;;;7.00;2.20;;;;;;;15.51;40.67;96452.19;5091870;28;20028;-79
2020/12/28 02:42:22;;;;;;;11.98;1.90;;;;;;;15.64;40.05;96463.91;5093033;28;20040;-78
2020/12/28 02:44:48;;;;;;;6.75;1.77;;;;;;;15.60;40.07;96467.97;5091611;28;20036;-79
2020/12/28 02:47:13;;;;;;;11.20;2.00;;;;;;;15.49;40.54;96473.84;5092921;28;20024;-78
2020/12/28 02:49:39;;;;;;;7.20;2.38;;;;;;;15.33;40.83;96494.06;5092573;28;20674;-79
2020/12/28 02:52:04;;;;;;;5.13;1.88;;;;;;;15.22;41.17;96496.44;5091185;28;20111;-77
2020/12/28 02:54:30;;;;;;;4.20;1.52;;;;;;;14.90;41.79;96505.78;5091126;28;20059;-78
2020/12/28 02:56:56;;;;;;;7.05;1.98;;;;;;;15.57;40.30;96519.16;5092493;28;20024;-79
2020/12/28 02:59:21;;;;;;;7.93;1.65;;;;;;;14.61;42.30;96519.69;5092457;28;20055;-79
2020/12/28 03:01:48;;;;;;;5.00;1.77;;;;;;;14.94;41.67;96534.66;5091462;28;20052;-78
2020/12/28 03:04:14;;;;;;;6.03;1.35;;;;;;;14.84;41.98;96546.78;5092723;28;20032;-78
2020/12/28 03:06:40;;;;;;;5.18;1.48;;;;;;;15.07;41.64;96551.13;5091397;28;20398;-78
2020/12/28 03:09:05;;;;;;;3.20;1.00;;;;;;;14.47;42.67;96575.81;5091409;28;20118;-78
2020/12/28 03:11:31;;;;;;;3.03;1.17;;;;;;;13.74;44.54;96583.03;5092693;28;20153;-78
2020/12/28 03:13:56;;;;;;;3.38;0.85;;;;;;;13.99;44.04;96601.53;5092703;28;20082;-79
2020/12/28 03:16:22;;;;;;;4.30;1.38;;;;;;;14.15;43.66;96601.47;5094977;28;20547;-78
2020/12/28 03:18:48;;;;;;;3.50;1.63;;;;;;;13.72;44.55;96619.13;5096906;28;20062;-79
2020/12/28 03:21:13;;;;;;;2.15;0.82;;;;;;;14.32;43.08;96621.38;5096842;28;20071;-79
2020/12/28 03:23:39;;;;;;;2.65;0.90;;;;;;;14.13;42.91;96636.78;5096691;28;20077;-78
2020/12/28 03:26:04;;;;;;;2.45;0.93;;;;;;;14.16;43.11;96646.94;5095435;28;20474;-79
2020/12/28 03:28:30;;;;;;;1.60;0.82;;;;;;;14.08;42.79;96642.84;5095178;28;20050;-78
2020/12/28 03:30:55;;;;;;;3.60;0.80;;;;;;;13.67;43.52;96652.56;5095425;28;20111;-79
2020/12/28 03:33:21;;;;;;;0.80;0.70;;;;;;;13.98;42.95;96674.88;5095284;28;20092;-79
2020/12/28 03:35:46;;;;;;;1.08;0.80;;;;;;;13.93;43.02;96672.66;5096591;28;20032;-78
2020/12/28 03:38:12;;;;;;;6.20;1.48;;;;;;;14.34;41.85;96677.38;5095186;28;20024;-78
2020/12/28 03:40:37;;;;;;;8.40;1.27;;;;;;;13.75;43.42;96697.81;5095162;28;20498;-78
2020/12/28 03:43:03;;;;;;;1.73;1.17;;;;;;;13.69;43.21;96694.06;5096384;28;20500;-79
2020/12/28 03:45:28;;;;;;;3.83;1.00;;;;;;;14.15;42.47;96714.00;5096312;28;20360;-78
2020/12/28 03:48:01;;;;;;;3.07;0.93;;;;;;;14.25;42.07;96726.66;5095122;28;20024;-78
2020/12/28 03:50:26;;;;;;;2.10;0.70;;;;;;;13.91;42.75;96727.22;5094764;28;20115;-78
2020/12/28 03:52:52;;;;;;;5.28;1.10;;;;;;;14.46;41.43;96752.03;5094863;28;20127;-79
2020/12/28 03:55:17;;;;;;;2.33;1.08;;;;;;;14.46;41.26;96776.75;5096187;28;20027;-78
2020/12/28 03:57:43;;;;;;;8.77;1.50;;;;;;;13.78;43.05;96768.28;5094849;28;20035;-78
2020/12/28 04:00:08;;;;;;;3.10;1.00;;;;;;;13.89;42.84;96777.00;5094903;28;20557;-79
2020/12/28 04:02:34;;;;;;;2.85;0.82;;;;;;;13.60;43.74;96792.63;5096044;28;20028;-77
2020/12/28 04:05:00;;;;;;;4.20;1.38;;;;;;;14.00;42.98;96795.19;5094681;28;20036;-78
2020/12/28 04:07:25;;;;;;;3.47;2.00;;;;;;;13.65;43.61;96802.31;5094564;28;20028;-78
2020/12/28 04:09:51;;;;;;;2.83;1.10;;;;;;;14.21;42.38;96807.56;5094623;28;20032;-78
2020/12/28 04:12:16;;;;;;;3.72;1.25;;;;;;;13.94;43.04;96818.88;5095850;28;20028;-78
2020/12/28 04:14:42;;;;;;;4.05;1.13;;;;;;;14.35;41.89;96829.94;5094560;28;20047;-79
2020/12/28 04:17:07;;;;;;;3.50;1.38;;;;;;;14.42;41.77;96832.50;5094533;28;20024;-78
2020/12/28 04:19:33;;;;;;;4.87;1.20;;;;;;;13.88;43.02;96852.31;5095709;28;20028;-78
2020/12/28 04:21:58;;;;;;;7.85;1.73;;;;;;;14.45;41.91;96858.34;5093736;28;20036;-78
2020/12/28 04:24:24;;;;;;;6.55;1.90;;;;;;;14.57;41.36;96867.88;5093279;28;20027;-77
2020/12/28 04:26:49;;;;;;;3.80;1.30;;;;;;;13.17;44.62;96875.81;5094083;28;20047;-79
2020/12/28 04:29:15;;;;;;;4.55;1.55;;;;;;;13.68;44.10;96875.50;5094049;28;20056;-78
2020/12/28 04:31:41;;;;;;;8.13;2.45;;;;;;;14.01;42.83;96881.81;5095471;28;20115;-78
2020/12/28 04:34:07;;;;;;;5.32;1.77;;;;;;;14.59;41.81;96885.47;5094204;28;20081;-78
2020/12/28 04:36:36;;;;;;;7.28;2.10;;;;;;;14.52;41.74;96893.13;5095340;28;20052;-78
2020/12/28 04:39:04;;;;;;;4.45;1.42;;;;;;;14.27;42.64;96899.97;5094081;28;20027;-78
2020/12/28 04:41:30;;;;;;;6.57;1.87;;;;;;;14.14;42.64;96910.13;5095374;28;20024;-79
2020/12/28 04:43:56;;;;;;;7.93;1.83;;;;;;;13.71;43.88;96922.09;5095161;28;20031;-78
2020/12/28 04:46:24;;;;;;;8.13;2.33;;;;;;;14.53;41.74;96927.63;5093901;28;20032;-78
2020/12/28 04:48:49;;;;;;;5.57;1.13;;;;;;;14.41;42.02;96931.81;5093888;28;20374;-78
2020/12/28 04:51:16;;;;;;;4.07;1.30;;;;;;;14.43;41.91;96941.19;5093877;28;20035;-78
2020/12/28 04:53:44;;;;;;;4.13;1.80;;;;;;;14.13;42.58;96938.75;5093710;28;20444;-78
2020/12/28 04:56:10;;;;;;;5.60;1.88;;;;;;;14.38;42.19;96949.16;5093689;28;20024;-79
2020/12/28 04:58:36;;;;;;;4.60;1.52;;;;;;;13.43;44.20;96959.13;5093713;28;20027;-78
2020/12/28 05:01:02;;;;;;;8.27;1.60;;;;;;;13.42;44.08;96967.75;5094966;28;20020;-78
2020/12/28 05:03:29;;;;;;;9.18;2.70;;;;;;;13.68;43.74;96974.25;5093632;28;20430;-79
2020/12/28 05:05:55;;;;;;;5.53;1.27;;;;;;;14.24;42.42;96974.97;5093504;28;20486;-78
2020/12/28 05:08:22;;;;;;;4.70;1.88;;;;;;;13.94;42.35;96989.00;5094755;28;20524;-79
2020/12/28 05:10:48;;;;;;;3.40;1.50;;;;;;;14.39;41.63;96983.66;5094768;28;20028;-78
2020/12/28 05:13:17;;;;;;;6.28;1.40;;;;;;;14.13;41.86;96993.66;5093439;28;20390;-79
2020/12/28 05:15:49;;;;;;;2.90;1.40;;;;;;;14.55;41.19;97010.38;5094656;28;20074;-78
2020/12/28 05:18:17;;;;;;;4.97;0.95;;;;;;;13.92;42.61;97016.09;5094557;28;20043;-78
2020/12/28 05:20:44;;;;;;;3.57;0.93;;;;;;;13.82;43.10;97026.09;5094437;28;20028;-78
2020/12/28 05:23:11;;;;;;;2.50;0.80;;;;;;;13.54;43.20;97039.22;5094531;28;20518;-78
2020/12/28 05:25:38;;;;;;;3.50;0.70;;;;;;;13.75;42.97;97049.00;5093034;28;20122;-78
2020/12/28 05:28:05;;;;;;;4.47;1.20;;;;;;;13.59;43.72;97054.38;5094168;28;20680;-78
2020/12/28 05:30:32;;;;;;;3.33;1.15;;;;;;;13.56;43.66;97056.00;5094487;28;20062;-79
2020/12/28 05:33:03;;;;;;;0.90;0.50;;;;;;;13.36;44.02;97065.41;5092968;28;20550;-79
2020/12/28 05:35:31;;;;;;;2.83;0.70;;;;;;;13.82;43.05;97067.25;5094205;28;20036;-78
2020/12/28 05:37:57;;;;;;;3.13;0.80;;;;;;;13.17;44.83;97099.81;5093545;28;20028;-78
2020/12/28 05:40:25;;;;;;;3.78;1.38;;;;;;;13.44;44.32;97106.00;5092382;28;20024;-78
2020/12/28 05:42:52;;;;;;;1.58;0.55;;;;;;;13.24;44.81;97097.75;5092837;28;20024;-77
2020/12/28 05:45:18;;;;;;;4.57;1.15;;;;;;;13.67;43.60;97124.38;5093958;28;20386;-78
2020/12/28 05:47:52;;;;;;;0.65;0.50;;;;;;;13.81;43.49;97110.38;5092833;28;20034;-78
2020/12/28 05:50:26;;;;;;;2.00;0.80;;;;;;;14.18;42.51;97133.19;5094093;28;20024;-78
2020/12/28 05:52:54;;;;;;;2.22;0.90;;;;;;;13.84;42.91;97172.66;5094043;28;20036;-78
2020/12/28 05:55:22;;;;;;;3.30;0.70;;;;;;;14.19;42.07;97145.69;5092615;28;20031;-78
2020/12/28 05:57:48;;;;;;;2.35;0.88;;;;;;;14.51;41.72;97164.31;5093814;28;20077;-78
2020/12/28 06:00:14;;;;;;;2.95;0.90;;;;;;;14.40;41.80;97169.19;5092225;28;20020;-78
2020/12/28 06:02:40;;;;;;;2.85;0.88;;;;;;;13.36;43.66;97191.53;5092382;28;20028;-78
2020/12/28 06:05:10;;;;;;;3.45;0.82;;;;;;;14.58;41.14;97188.06;5092199;28;20143;-78
2020/12/28 06:07:37;;;;;;;1.88;1.00;;;;;;;13.91;42.26;97218.41;5093649;28;20528;-78
2020/12/28 06:10:04;;;;;;;1.40;0.80;;;;;;;13.90;41.81;97211.34;5092272;28;20028;-78
2020/12/28 06:12:31;;;;;;;1.88;1.00;;;;;;;14.42;40.92;97218.97;5093559;28;20024;-78
2020/12/28 06:14:56;;;;;;;3.92;1.40;;;;;;;14.58;40.61;97218.28;5092241;28;20024;-78
2020/12/28 06:17:32;;;;;;;4.53;1.20;;;;;;;14.57;40.43;97235.97;5092131;28;20028;-79
2020/12/28 06:20:05;;;;;;;2.03;1.25;;;;;;;14.58;40.25;97238.28;5092170;28;20034;-78
2020/12/28 06:22:32;;;;;;;2.92;1.20;;;;;;;14.43;40.72;97240.56;5093414;28;20024;-78
2020/12/28 06:25:06;;;;;;;2.08;0.80;;;;;;;14.83;39.82;97240.53;5092030;28;20032;-79
2020/12/28 06:27:39;;;;;;;6.80;1.70;;;;;;;14.88;39.43;97251.00;5093326;28;20028;-78
2020/12/28 06:30:21;;;;;;;2.95;1.50;;;;;;;14.41;40.42;97270.41;5091774;28;20059;-79
2020/12/28 06:33:01;;;;;;;2.58;1.08;;;;;;;14.83;39.46;97264.50;5093060;28;20036;-78
2020/12/28 06:35:31;;;;;;;2.28;1.08;;;;;;;14.83;39.46;97281.75;5091748;28;20031;-77
2020/12/28 06:38:00;;;;;;;0.98;0.65;;;;;;;14.59;39.37;97272.06;5091926;28;20028;-78
2020/12/28 06:40:37;;;;;;;2.25;1.05;;;;;;;14.97;38.72;97286.97;5093098;28;20016;-78
2020/12/28 06:43:11;;;;;;;2.97;0.70;;;;;;;14.72;39.11;97286.69;5091331;28;20367;-78
2020/12/28 06:45:41;;;;;;;2.03;1.00;;;;;;;14.31;40.01;97293.34;5091438;28;20032;-78
2020/12/28 06:48:16;;;;;;;3.17;1.17;;;;;;;14.20;39.89;97294.75;5091716;28;20032;-78
2020/12/28 06:50:42;;;;;;;1.50;0.85;;;;;;;14.39;40.03;97310.47;5091621;28;20128;-78
2020/12/28 06:53:07;;;;;;;2.55;1.10;;;;;;;14.28;40.27;97298.91;5092922;28;20052;-78
2020/12/28 06:55:33;;;;;;;1.75;0.80;;;;;;;14.34;40.08;97310.94;5091676;28;20028;-78
2020/12/28 06:58:02;;;;;;;1.25;0.90;;;;;;;14.35;39.38;97327.00;5091607;28;20028;-78
2020/12/28 07:00:27;;;;;;;2.35;1.00;;;;;;;14.56;39.15;97327.84;5092879;28;20032;-78
2020/12/28 07:02:55;;;;;;;2.10;1.02;;;;;;;14.52;39.13;97338.13;5092495;28;20021;-78
2020/12/28 07:05:25;;;;;;;2.38;1.02;;;;;;;14.37;39.26;97359.56;5091435;28;20081;-78
2020/12/28 07:07:52;;;;;;;1.95;0.90;;;;;;;14.28;39.78;97362.88;5091485;28;20024;-78
2020/12/28 07:10:20;;;;;;;1.17;0.75;;;;;;;14.19;39.71;97373.59;5091386;28;20607;-78
2020/12/28 07:12:46;;;;;;;3.15;1.30;;;;;;;14.37;39.34;97378.78;5092416;28;20394;-78
2020/12/28 07:15:12;;;;;;;0.98;0.73;;;;;;;13.76;40.35;97381.75;5092634;28;20141;-78
2020/12/28 07:17:38;;;;;;;2.08;0.90;;;;;;;14.19;40.01;97403.03;5092622;28;20028;-78
2020/12/28 07:20:12;;;;;;;3.28;1.17;;;;;;;14.24;40.02;97419.81;5091175;28;20070;-78
2020/12/28 07:22:39;;;;;;;3.95;1.35;;;;;;;14.74;39.03;97421.72;5091326;28;20020;-78
2020/12/28 07:25:07;;;;;;;2.33;1.10;;;;;;;14.40;39.43;97441.88;5092431;28;20028;-78
2020/12/28 07:27:34;;;;;;;1.98;1.17;;;;;;;13.63;41.47;97439.16;5092577;28;20024;-78
2020/12/28 07:30:08;;;;;;;1.73;1.00;;;;;;;14.69;39.13;97444.94;5091139;28;20036;-78
2020/12/28 07:32:34;;;;;;;3.38;1.30;;;;;;;14.57;39.33;97450.28;5091364;28;20028;-78
2020/12/28 07:35:00;;;;;;;1.73;1.50;;;;;;;13.92;40.07;97446.97;5091183;28;20028;-78
2020/12/28 07:37:28;;;;;;;4.32;1.75;;;;;;;14.78;38.64;97468.38;5091137;28;20028;-78
2020/12/28 07:39:53;;;;;;;34.53;24.85;;;;;;;14.62;38.65;97458.81;5092328;28;20032;-78
2020/12/28 07:42:24;;;;;;;26.30;11.82;;;;;;;14.03;39.66;97466.81;5091091;28;20062;-79
2020/12/28 07:44:55;;;;;;;3.13;2.17;;;;;;;14.81;38.16;97468.31;5092353;28;20032;-78
2020/12/28 07:47:24;;;;;;;1.92;1.52;;;;;;;14.88;37.99;97475.63;5091070;28;20028;-78
2020/12/28 07:49:54;;;;;;;2.95;1.38;;;;;;;14.54;38.85;97478.59;5091056;28;20031;-78
2020/12/28 07:52:26;;;;;;;14.10;11.43;;;;;;;14.92;37.68;97484.59;5091114;28;20032;-78
2020/12/28 07:55:16;;;;;;;5.70;4.78;;;;;;;14.65;38.53;97473.69;5091047;28;20089;-78
2020/12/28 07:58:21;;;;;;;4.13;1.77;;;;;;;14.25;39.26;97481.75;5091224;28;20033;-78
2020/12/28 08:00:50;;;;;;;3.42;1.38;;;;;;;14.05;39.63;97481.66;5086270;28;20101;-78
2020/12/28 08:03:35;;;;;;;2.90;1.00;;;;;;;14.25;39.14;97492.75;5095805;28;20040;-77
2020/12/28 08:06:09;;;;;;;2.20;0.93;;;;;;;14.75;37.87;97500.22;5095869;28;20028;-78
2020/12/28 08:08:35;;;;;;;2.97;2.47;;;;;;;14.50;38.18;97513.56;5096038;28;20031;-78
2020/12/28 08:11:03;;;;;;;6.13;5.03;;;;;;;14.14;39.07;97527.84;5095937;28;20036;-78
2020/12/28 08:13:33;;;;;;;3.67;2.08;;;;;;;14.02;39.20;97520.16;5094538;28;20032;-77
2020/12/28 08:16:10;;;;;;;2.08;1.00;;;;;;;14.45;38.55;97523.06;5095876;28;20056;-77
2020/12/28 08:18:45;;;;;;;6.20;3.67;;;;;;;14.47;38.17;97533.66;5094467;28;20445;-77
2020/12/28 08:21:10;;;;;;;4.05;3.15;;;;;;;13.60;40.10;97541.47;5095703;28;20024;-77
2020/12/28 08:23:36;;;;;;;2.85;1.65;;;;;;;13.70;40.17;97550.78;5094356;28;20024;-77
2020/12/28 08:26:02;;;;;;;3.08;1.25;;;;;;;13.81;40.24;97543.94;5095518;28;20107;-78
2020/12/28 08:28:27;;;;;;;3.95;1.75;;;;;;;14.05;39.57;97564.00;5095463;28;20589;-77
2020/12/28 08:30:53;;;;;;;2.35;1.50;;;;;;;13.94;39.85;97573.59;5095484;28;20020;-77
2020/12/28 08:33:19;;;;;;;6.30;2.78;;;;;;;13.61;40.63;97573.22;5095518;28;20058;-77
2020/12/28 08:35:51;;;;;;;5.80;5.00;;;;;;;13.38;40.98;97584.06;5095449;28;20108;-77
2020/12/28 08:38:28;;;;;;;8.65;2.53;;;;;;;13.41;41.39;97596.94;5094028;28;20031;-77
2020/12/28 08:40:55;;;;;;;4.47;3.53;;;;;;;13.42;41.27;97595.75;5094121;28;20382;-77
2020/12/28 08:43:20;;;;;;;2.92;2.08;;;;;;;13.59;40.84;97612.00;5094031;28;20551;-78
2020/12/28 08:45:46;;;;;;;5.60;4.38;;;;;;;13.61;40.97;97617.09;5095218;28;20028;-78
2020/12/28 08:48:12;;;;;;;2.08;1.48;;;;;;;13.63;40.99;97622.97;5095223;28;20024;-78
2020/12/28 08:50:37;;;;;;;6.25;2.35;;;;;;;13.28;41.60;97621.34;5093906;28;20058;-78
2020/12/28 08:53:03;;;;;;;5.75;1.80;;;;;;;13.36;41.28;97638.50;5095204;28;20020;-79
2020/12/28 08:55:28;;;;;;;2.13;1.15;;;;;;;13.91;40.55;97646.56;5095063;28;20067;-78
2020/12/28 08:57:57;;;;;;;3.67;1.30;;;;;;;13.69;40.84;97648.00;5095036;28;20047;-79
2020/12/28 09:00:24;;;;;;;8.52;6.05;;;;;;;14.06;40.05;97647.94;5095012;28;20543;-78
2020/12/28 09:02:57;;;;;;;69.47;50.80;;;;;;;13.82;40.53;97665.47;5093726;28;20024;-79
2020/12/28 09:05:26;;;;;;;65.03;49.13;;;;;;;14.01;40.21;97667.63;5093584;28;20031;-78
2020/12/28 09:07:52;;;;;;;8.50;5.63;;;;;;;14.30;39.66;97675.50;5070079;28;20025;-78
2020/12/28 09:10:18;;;;;;;5.15;3.00;;;;;;;14.83;38.63;97685.03;5054300;28;20032;-79
2020/12/28 09:12:43;;;;;;;5.47;2.25;;;;;;;15.21;37.74;97688.38;5062164;28;20025;-79
2020/12/28 09:15:10;;;;;;;4.32;1.23;;;;;;;14.95;38.35;97690.72;5073815;28;20021;-80
2020/12/28 09:17:35;;;;;;;4.50;2.28;;;;;;;14.82;38.69;97703.50;5074098;28;20029;-78
2020/12/28 09:20:03;;;;;;;13.68;9.18;;;;;;;14.90;38.54;97704.94;5072774;28;20405;-79
2020/12/28 09:22:28;;;;;;;8.00;3.72;;;;;;;14.81;38.93;97706.63;5072886;28;20029;-78
2020/12/28 09:24:54;;;;;;;10.23;5.22;;;;;;;14.80;38.88;97703.09;5073327;28;20490;-79
2020/12/28 09:27:20;;;;;;;7.75;2.03;;;;;;;14.93;38.84;97708.81;5072719;28;20382;-79
2020/12/28 09:29:45;;;;;;;5.57;1.70;;;;;;;14.82;39.11;97706.25;5073537;28;20053;-79
2020/12/28 09:32:11;;;;;;;3.42;1.40;;;;;;;14.83;39.00;97721.53;5073734;28;20025;-79
2020/12/28 09:34:36;;;;;;;3.30;1.20;;;;;;;14.89;39.25;97719.13;5071876;28;20059;-78
2020/12/28 09:37:04;;;;;;;7.38;1.33;;;;;;;14.81;39.37;97725.88;5073368;28;20029;-79
2020/12/28 09:39:30;;;;;;;5.30;2.00;;;;;;;14.84;39.29;97728.59;5076868;28;20029;-78
2020/12/28 09:41:57;;;;;;;4.45;1.90;;;;;;;14.94;39.02;97735.13;5091332;28;20032;-77
2020/12/28 09:44:23;;;;;;;3.97;1.85;;;;;;;15.28;38.87;97740.53;5093867;28;20055;-77
2020/12/28 09:46:52;;;;;;;4.20;1.20;;;;;;;15.29;38.34;97752.31;5093860;28;20085;-77
2020/12/28 09:49:19;;;;;;;4.95;1.77;;;;;;;15.49;38.22;97751.19;5092745;28;20497;-77
2020/12/28 09:51:47;;;;;;;8.23;1.70;;;;;;;15.63;37.96;97754.91;5092984;28;20448;-77
2020/12/28 09:54:14;;;;;;;3.28;1.20;;;;;;;15.68;38.00;97755.22;5092629;28;20039;-77
2020/12/28 09:56:39;;;;;;;9.65;1.98;;;;;;;15.43;38.44;97752.09;5092663;28;20027;-78
2020/12/28 09:59:05;;;;;;;7.93;1.45;;;;;;;15.15;39.25;97770.56;5092102;28;20531;-78
2020/12/28 10:01:31;;;;;;;9.95;2.22;;;;;;;15.18;39.24;97763.44;5092540;28;20028;-77
2020/12/28 10:03:56;;;;;;;5.78;2.00;;;;;;;15.03;39.52;97779.38;5093611;28;20028;-78
2020/12/28 10:06:31;;;;;;;11.63;3.67;;;;;;;14.98;39.77;97774.34;5091924;28;20028;-78
2020/12/28 10:09:01;;;;;;;4.55;2.80;;;;;;;15.22;39.41;97777.94;5093897;28;20485;-85
2020/12/28 10:11:27;;;;;;;5.82;2.22;;;;;;;15.21;39.38;97785.41;5092749;28;20028;-79
2020/12/28 10:13:52;;;;;;;8.68;3.33;;;;;;;15.37;38.95;97790.28;5094034;28;20029;-83
2020/12/28 10:16:23;;;;;;;8.95;3.80;;;;;;;15.19;39.69;97784.28;5093039;28;20390;-80
2020/12/28 10:18:48;;;;;;;5.60;3.55;;;;;;;15.38;39.28;97789.09;5093798;28;20069;-78
2020/12/28 10:21:14;;;;;;;5.65;2.10;;;;;;;15.36;39.19;97787.97;5092312;28;20028;-75
2020/12/28 10:23:40;;;;;;;5.95;1.80;;;;;;;15.79;38.56;97791.63;5092651;28;20050;-86
2020/12/28 10:26:06;;;;;;;4.18;1.88;;;;;;;15.47;39.30;97800.34;5083519;28;20043;-89
2020/12/28 10:28:33;;;;;;;5.85;2.17;;;;;;;15.39;39.59;97800.88;5066291;28;20521;-93
2020/12/28 10:30:59;;;;;;;4.60;1.73;;;;;;;15.39;39.68;97809.91;5073158;28;20029;-77
2020/12/28 10:33:25;;;;;;;4.63;1.65;;;;;;;15.80;39.29;97803.41;5070799;28;20032;-90
2020/12/28 10:35:50;;;;;;;9.45;2.35;;;;;;;15.61;39.18;97804.88;5070749;28;20040;-70
2020/12/28 10:38:22;;;;;;;12.32;1.63;;;;;;;15.61;39.35;97817.81;5072792;28;20494;-73
2020/12/28 10:40:51;;;;;;;7.32;2.03;;;;;;;15.62;39.48;97820.19;5072546;28;20037;-73
2020/12/28 10:43:18;;;;;;;6.07;2.08;;;;;;;15.71;39.49;97816.91;5067308;28;20036;-73
2020/12/28 10:45:44;;;;;;;4.28;1.75;;;;;;;15.54;39.57;97816.75;5071924;28;20055;-72
2020/12/28 10:48:09;;;;;;;11.80;2.08;;;;;;;15.65;39.50;97822.13;5072200;28;20445;-70
2020/12/28 10:50:35;;;;;;;3.28;1.70;;;;;;;15.44;39.59;97828.69;5072668;28;20024;-70
2020/12/28 10:53:00;;;;;;;6.47;2.45;;;;;;;15.42;39.25;97827.56;5072478;28;20024;-69
2020/12/28 10:55:26;;;;;;;14.10;5.32;;;;;;;15.54;39.10;97829.72;5072386;28;20025;-83
2020/12/28 10:57:51;;;;;;;6.10;1.90;;;;;;;15.71;38.78;97825.16;5072762;28;20081;-86
2020/12/28 11:00:17;;;;;;;5.72;2.22;;;;;;;15.65;38.84;97835.13;5072636;28;20028;-81
2020/12/28 11:02:43;;;;;;;12.50;1.88;;;;;;;15.64;38.83;97842.59;5072927;28;20467;-79
2020/12/28 11:05:09;;;;;;;4.40;1.00;;;;;;;15.29;39.39;97838.34;5071656;28;20035;-80
2020/12/28 11:07:34;;;;;;;7.05;1.60;;;;;;;15.50;38.76;97840.78;5071623;28;20031;-85
2020/12/28 11:10:00;;;;;;;8.15;1.70;;;;;;;15.41;39.46;97826.75;5071762;28;20383;-78
2020/12/28 11:12:25;;;;;;;5.10;1.65;;;;;;;15.52;39.23;97827.41;5071592;28;20024;-83
2020/12/28 11:14:51;;;;;;;1.92;1.23;;;;;;;15.58;39.34;97841.47;5071922;28;20021;-79
2020/12/28 11:17:16;;;;;;;2.70;1.67;;;;;;;15.40;39.66;97840.94;5072851;28;20490;-76
2020/12/28 11:19:42;;;;;;;4.25;1.40;;;;;;;15.33;39.97;97838.28;5072692;28;20020;-78
2020/12/28 11:22:07;;;;;;;3.90;1.23;;;;;;;15.50;39.66;97837.28;5072677;28;20028;-78
2020/12/28 11:24:33;;;;;;;3.67;1.60;;;;;;;15.32;40.06;97842.22;5071445;28;20047;-84
2020/12/28 11:26:58;;;;;;;2.75;1.15;;;;;;;15.24;40.48;97844.31;5062847;28;20029;-78
2020/12/28 11:29:24;;;;;;;2.40;1.20;;;;;;;15.14;40.83;97853.50;5056672;28;20041;-78
2020/12/28 11:31:49;;;;;;;4.18;1.63;;;;;;;15.09;41.17;97851.97;5069039;28;20042;-91